Time;durP1;ratioP1;P1;durP2;ratioP2;P2;SDS_P1;SDS_P2;PMS_P1;PMS_P2;Temp;Humidity;BMP_temperature;BMP_pressure;BME280_temperature;BME280_humidity;BME280_pressure;Samples;Min_cycle;Max_cycle;Signal;HPM_P1;HPM_P2
2023/08/11 00:00:08;;;;;;;7.68;6.03;;;16.50;99.90;;;;;;4987134;28;20121;-73
2023/08/11 00:02:36;;;;;;;7.85;5.75;;;16.40;1.00;;;;;;4988304;28;20081;-73
2023/08/11 00:05:02;;;;;;;8.85;5.88;;;16.30;1.00;;;;;;4974287;28;20176;-74
2023/08/11 00:07:28;;;;;;;9.23;6.13;;;16.20;1.00;;;;;;4990361;28;20074;-73
2023/08/11 00:09:55;;;;;;;7.90;6.30;;;16.10;1.00;;;;;;4990318;28;20531;-73
2023/08/11 00:12:20;;;;;;;9.32;6.18;;;16.00;1.00;;;;;;4986481;28;20050;-74
2023/08/11 00:14:46;;;;;;;11.10;6.30;;;15.90;1.00;;;;;;4986027;28;20092;-73
2023/08/11 00:17:12;;;;;;;12.18;6.45;;;15.80;1.00;;;;;;4984865;28;20035;-73
2023/08/11 00:19:37;;;;;;;9.02;6.45;;;15.70;1.00;;;;;;4983880;28;20034;-74
2023/08/11 00:22:03;;;;;;;9.65;5.43;;;15.60;1.00;;;;;;5001447;28;20659;-73
2023/08/11 00:24:29;;;;;;;8.45;6.32;;;15.60;1.00;;;;;;4985557;28;20055;-73
2023/08/11 00:26:54;;;;;;;8.88;5.63;;;15.60;1.00;;;;;;4986667;28;20046;-73
2023/08/11 00:29:20;;;;;;;7.82;5.45;;;15.50;1.00;;;;;;5000614;28;20141;-73
2023/08/11 00:31:46;;;;;;;7.75;5.63;;;15.40;1.00;;;;;;4997451;28;20053;-74
2023/08/11 00:34:12;;;;;;;8.93;6.32;;;15.40;1.00;;;;;;4968592;28;21958;-73
2023/08/11 00:36:38;;;;;;;7.47;5.32;;;15.30;1.00;;;;;;5001205;28;20130;-73
2023/08/11 00:39:03;;;;;;;10.25;6.65;;;15.30;1.00;;;;;;4985318;28;21675;-73
2023/08/11 00:41:30;;;;;;;10.52;6.28;;;15.30;1.00;;;;;;4971328;28;20378;-73
2023/08/11 00:43:55;;;;;;;7.95;6.25;;;15.20;1.00;;;;;;4986868;28;20714;-73
2023/08/11 00:46:23;;;;;;;10.25;5.90;;;15.10;1.00;;;;;;5002317;28;20053;-73
2023/08/11 00:48:51;;;;;;;11.40;5.93;;;15.10;1.00;;;;;;4989187;28;20074;-74
2023/08/11 00:51:20;;;;;;;10.63;6.65;;;15.10;1.00;;;;;;4989008;28;20740;-73
2023/08/11 00:53:46;;;;;;;8.32;6.28;;;15.00;1.00;;;;;;4991421;28;20183;-73
2023/08/11 00:56:13;;;;;;;11.20;6.63;;;14.90;1.00;;;;;;4989791;28;20460;-73
2023/08/11 00:58:40;;;;;;;8.73;6.63;;;14.90;1.00;;;;;;4995763;28;20558;-73
2023/08/11 01:01:05;;;;;;;9.82;6.68;;;14.90;1.00;;;;;;4982413;28;20536;-73
2023/08/11 01:03:31;;;;;;;10.65;7.53;;;14.80;1.00;;;;;;4996322;28;20149;-73
2023/08/11 01:06:21;;;;;;;10.30;6.90;;;14.80;1.00;;;;;;4983381;28;20053;-73
2023/08/11 01:08:58;;;;;;;9.70;6.68;;;14.80;1.00;;;;;;4979554;28;20046;-73
2023/08/11 01:11:40;;;;;;;11.52;7.40;;;14.70;1.00;;;;;;4978069;28;20038;-73
2023/08/11 01:14:22;;;;;;;10.13;7.43;;;14.60;1.00;;;;;;4983205;28;20113;-73
2023/08/11 01:16:50;;;;;;;10.55;7.38;;;14.60;1.00;;;;;;4982175;28;20045;-73
2023/08/11 01:19:28;;;;;;;11.80;8.38;;;14.50;1.00;;;;;;4991369;28;20042;-73
2023/08/11 01:21:58;;;;;;;11.50;7.75;;;14.60;1.00;;;;;;4986383;28;20433;-73
2023/08/11 01:24:25;;;;;;;12.70;7.65;;;14.50;1.00;;;;;;4983553;28;20109;-73
2023/08/11 01:26:51;;;;;;;11.02;6.70;;;14.50;1.00;;;;;;4985562;28;20093;-73
2023/08/11 01:29:18;;;;;;;13.90;8.07;;;14.50;1.00;;;;;;4993287;28;20062;-73
2023/08/11 01:31:44;;;;;;;11.50;7.80;;;14.40;1.00;;;;;;4986070;28;20532;-73
2023/08/11 01:34:10;;;;;;;12.15;7.50;;;14.40;1.00;;;;;;5006402;28;20099;-72
2023/08/11 01:36:37;;;;;;;12.77;7.55;;;14.40;1.00;;;;;;4999443;28;20553;-73
2023/08/11 01:39:04;;;;;;;13.07;8.10;;;14.40;1.00;;;;;;4984748;28;20073;-73
2023/08/11 01:41:31;;;;;;;13.63;9.05;;;14.30;1.00;;;;;;4983611;28;20038;-73
2023/08/11 01:43:58;;;;;;;13.10;9.18;;;14.20;3.60;;;;;;4988463;28;20548;-73
2023/08/11 01:46:25;;;;;;;12.68;8.93;;;14.20;7.40;;;;;;4984234;28;20042;-73
2023/08/11 01:48:52;;;;;;;12.10;8.82;;;14.20;9.30;;;;;;4983490;28;20103;-73
2023/08/11 01:51:18;;;;;;;16.50;9.15;;;14.20;10.70;;;;;;4989272;28;20045;-73
2023/08/11 01:53:43;;;;;;;13.25;9.00;;;14.20;13.10;;;;;;4984170;28;20038;-73
2023/08/11 01:56:10;;;;;;;13.85;9.18;;;14.20;14.60;;;;;;4995139;28;20088;-72
2023/08/11 01:58:36;;;;;;;13.82;9.75;;;14.10;18.30;;;;;;4975027;28;20081;-73
2023/08/11 02:01:02;;;;;;;12.07;8.55;;;14.10;19.40;;;;;;4983952;28;20042;-72
2023/08/11 02:03:28;;;;;;;13.23;9.70;;;14.10;21.60;;;;;;4998184;28;20117;-73
2023/08/11 02:05:55;;;;;;;14.00;9.88;;;14.10;25.00;;;;;;4988453;28;20826;-73
2023/08/11 02:08:21;;;;;;;15.30;10.35;;;14.00;26.70;;;;;;4985826;28;20038;-73
2023/08/11 02:10:46;;;;;;;12.63;10.00;;;14.00;30.80;;;;;;4997477;28;20661;-73
2023/08/11 02:13:12;;;;;;;12.45;9.80;;;14.00;31.00;;;;;;4984953;28;20408;-73
2023/08/11 02:15:39;;;;;;;14.18;10.05;;;14.00;34.40;;;;;;4983099;28;20043;-73
2023/08/11 02:18:05;;;;;;;16.08;10.65;;;14.00;36.80;;;;;;4977391;28;20030;-73
2023/08/11 02:20:32;;;;;;;15.70;10.20;;;13.90;39.00;;;;;;4995479;28;20061;-72
2023/08/11 02:22:58;;;;;;;14.15;9.95;;;13.90;39.30;;;;;;4980527;28;20117;-72
2023/08/11 02:25:27;;;;;;;15.57;11.05;;;13.90;42.40;;;;;;4976041;28;20042;-73
2023/08/11 02:27:53;;;;;;;15.35;10.40;;;13.90;46.40;;;;;;4980431;28;20058;-72
2023/08/11 02:30:19;;;;;;;17.75;10.75;;;13.90;49.20;;;;;;4998310;28;20112;-73
2023/08/11 02:32:47;;;;;;;14.20;9.82;;;13.90;51.20;;;;;;5000053;28;20043;-73
2023/08/11 02:35:14;;;;;;;13.20;9.90;;;13.90;53.10;;;;;;4985166;28;20073;-73
2023/08/11 02:37:41;;;;;;;14.73;10.05;;;13.90;57.10;;;;;;4968431;28;20396;-73
2023/08/11 02:40:09;;;;;;;16.50;10.68;;;13.90;62.60;;;;;;4982967;28;20038;-73
2023/08/11 02:42:38;;;;;;;14.48;10.40;;;13.80;62.80;;;;;;4999760;28;20042;-73
2023/08/11 02:45:08;;;;;;;14.35;9.63;;;13.80;63.70;;;;;;5000185;28;20038;-73
2023/08/11 02:47:34;;;;;;;12.57;8.98;;;13.80;64.40;;;;;;4970969;28;20044;-73
2023/08/11 02:49:59;;;;;;;12.57;8.65;;;13.80;66.20;;;;;;4999725;28;20121;-73
2023/08/11 02:52:25;;;;;;;13.05;9.40;;;13.80;67.70;;;;;;5000657;28;20941;-73
2023/08/11 02:54:51;;;;;;;13.45;9.30;;;13.80;71.70;;;;;;4990311;28;20774;-73
2023/08/11 02:57:16;;;;;;;12.68;9.07;;;13.80;75.30;;;;;;4984221;28;20543;-73
2023/08/11 02:59:44;;;;;;;14.35;9.30;;;13.70;78.70;;;;;;4990857;28;20050;-73
2023/08/11 03:02:11;;;;;;;13.52;8.38;;;13.70;81.80;;;;;;4994269;28;20502;-73
2023/08/11 03:04:36;;;;;;;12.20;9.40;;;13.70;84.20;;;;;;4989938;28;20595;-73
2023/08/11 03:07:05;;;;;;;11.63;8.60;;;13.70;85.40;;;;;;4987397;28;20129;-73
2023/08/11 03:09:31;;;;;;;13.48;8.73;;;13.70;87.70;;;;;;4984527;28;20488;-73
2023/08/11 03:11:57;;;;;;;11.80;7.85;;;13.60;88.90;;;;;;4984845;28;20038;-73
2023/08/11 03:14:22;;;;;;;16.48;9.70;;;13.60;91.30;;;;;;4985847;28;20099;-73
2023/08/11 03:16:48;;;;;;;11.70;8.13;;;13.60;92.10;;;;;;5005472;28;20031;-73
2023/08/11 03:19:14;;;;;;;12.32;8.65;;;13.60;92.50;;;;;;4976155;28;20046;-73
2023/08/11 03:21:39;;;;;;;14.50;8.30;;;13.60;94.20;;;;;;4993968;28;20050;-72
2023/08/11 03:24:05;;;;;;;12.95;8.52;;;13.60;94.50;;;;;;4997864;28;20465;-72
2023/08/11 03:26:31;;;;;;;11.38;8.55;;;13.60;95.40;;;;;;5002666;28;20046;-73
2023/08/11 03:28:56;;;;;;;12.02;8.98;;;13.50;96.60;;;;;;4999510;28;20055;-72
2023/08/11 03:31:22;;;;;;;12.00;8.80;;;13.60;98.50;;;;;;5000317;28;20038;-73
2023/08/11 03:33:48;;;;;;;15.23;9.55;;;13.50;99.90;;;;;;4982754;28;20030;-73
2023/08/11 03:36:14;;;;;;;15.65;9.18;;;13.60;99.90;;;;;;4966268;28;20068;-73
2023/08/11 03:38:40;;;;;;;13.60;9.43;;;13.60;99.90;;;;;;4983890;28;20034;-73
2023/08/11 03:41:06;;;;;;;13.65;9.60;;;13.60;99.90;;;;;;4984078;28;20416;-72
2023/08/11 03:43:32;;;;;;;13.52;8.68;;;13.60;99.90;;;;;;4983425;28;20046;-73
2023/08/11 03:45:57;;;;;;;13.65;8.68;;;13.60;99.90;;;;;;4975898;28;20553;-72
2023/08/11 03:48:23;;;;;;;11.70;8.70;;;13.60;99.90;;;;;;4973831;28;20537;-73
2023/08/11 03:50:49;;;;;;;12.07;8.40;;;13.50;99.90;;;;;;4981764;28;20088;-73
2023/08/11 03:53:14;;;;;;;11.18;8.07;;;13.60;99.90;;;;;;4980536;28;20528;-73
2023/08/11 03:55:42;;;;;;;10.90;7.82;;;13.50;99.90;;;;;;4987076;28;20357;-73
2023/08/11 03:58:08;;;;;;;12.57;8.35;;;13.50;99.90;;;;;;4983812;28;20640;-72
2023/08/11 04:00:35;;;;;;;15.32;9.02;;;13.60;99.90;;;;;;5002976;28;20045;-72
2023/08/11 04:03:01;;;;;;;13.82;8.30;;;13.50;99.90;;;;;;4985179;28;20050;-72
2023/08/11 04:05:27;;;;;;;16.20;9.15;;;13.50;99.90;;;;;;4981036;28;20038;-72
2023/08/11 04:07:53;;;;;;;10.55;8.02;;;13.60;99.90;;;;;;4981440;28;20511;-73
2023/08/11 04:10:19;;;;;;;10.63;7.68;;;13.50;99.90;;;;;;5008892;28;20072;-72
2023/08/11 04:12:44;;;;;;;14.02;8.60;;;13.50;99.90;;;;;;4987662;28;20046;-72
2023/08/11 04:15:10;;;;;;;13.00;8.80;;;13.50;99.90;;;;;;4966109;28;20049;-72
2023/08/11 04:17:36;;;;;;;12.50;7.65;;;13.50;99.90;;;;;;4981957;28;20042;-73
2023/08/11 04:20:12;;;;;;;11.73;7.78;;;13.50;99.90;;;;;;4966369;28;20044;-72
2023/08/11 04:22:39;;;;;;;;;;;13.50;99.90;;;;;;4987491;28;20049;-72
2023/08/11 04:25:05;;;;;;;10.57;7.32;;;13.50;99.90;;;;;;4995122;28;20000;-72
2023/08/11 04:27:31;;;;;;;14.93;7.97;;;13.50;99.90;;;;;;4986060;28;20112;-73
2023/08/11 04:29:57;;;;;;;14.23;7.60;;;13.50;99.90;;;;;;4995477;28;20046;-73
2023/08/11 04:32:23;;;;;;;12.88;8.60;;;13.50;99.90;;;;;;4984338;28;20509;-72
2023/08/11 04:34:49;;;;;;;12.85;7.88;;;13.50;99.90;;;;;;5000109;28;20046;-73
2023/08/11 04:37:17;;;;;;;10.70;7.60;;;13.50;99.90;;;;;;4985522;28;20046;-72
2023/08/11 04:39:42;;;;;;;12.32;9.13;;;13.60;99.90;;;;;;4962054;28;20588;-72
2023/08/11 04:42:08;;;;;;;14.07;8.07;;;13.60;99.90;;;;;;4985966;28;20045;-72
2023/08/11 04:44:34;;;;;;;12.23;8.70;;;13.60;99.90;;;;;;4985122;28;20136;-72
2023/08/11 04:46:59;;;;;;;17.83;7.72;;;13.60;99.90;;;;;;4984043;28;20034;-72
2023/08/11 04:49:25;;;;;;;11.63;8.13;;;13.70;99.90;;;;;;4986716;28;20121;-72
2023/08/11 04:51:51;;;;;;;15.15;8.20;;;13.70;99.90;;;;;;4966714;28;20691;-72
2023/08/11 04:54:18;;;;;;;11.20;8.15;;;13.70;99.90;;;;;;4978608;28;20675;-72
2023/08/11 04:56:43;;;;;;;13.05;8.25;;;13.80;99.90;;;;;;4978643;28;20042;-72
2023/08/11 04:59:09;;;;;;;8.93;6.55;;;13.90;99.90;;;;;;4979567;28;20119;-72
2023/08/11 05:01:35;;;;;;;11.10;7.85;;;13.90;99.90;;;;;;4980683;28;20042;-72
2023/08/11 05:04:01;;;;;;;13.52;7.25;;;13.90;99.90;;;;;;4983000;28;20054;-70
2023/08/11 05:06:26;;;;;;;16.05;7.82;;;13.90;99.90;;;;;;4979510;28;20047;-72
2023/08/11 05:08:52;;;;;;;10.90;7.45;;;14.00;99.90;;;;;;4990625;28;20074;-72
2023/08/11 05:11:18;;;;;;;9.77;7.07;;;14.00;99.90;;;;;;5001671;28;20044;-73
2023/08/11 05:13:43;;;;;;;11.48;7.20;;;14.00;99.90;;;;;;5000836;28;20401;-72
2023/08/11 05:16:09;;;;;;;12.40;7.05;;;14.10;99.90;;;;;;4980737;28;20021;-72
2023/08/11 05:18:35;;;;;;;10.40;6.97;;;14.20;99.90;;;;;;4983197;28;20073;-72
2023/08/11 05:21:02;;;;;;;9.68;6.70;;;14.20;99.90;;;;;;4981086;28;20045;-72
2023/08/11 05:23:27;;;;;;;9.68;6.50;;;14.20;99.90;;;;;;4980569;28;20120;-71
2023/08/11 05:25:53;;;;;;;11.68;6.60;;;14.30;99.90;;;;;;4983349;28;20062;-72
2023/08/11 05:28:19;;;;;;;10.15;6.70;;;14.30;99.90;;;;;;4981569;28;21350;-72
2023/08/11 05:30:48;;;;;;;10.23;6.32;;;14.40;99.90;;;;;;5000401;28;20042;-72
2023/08/11 05:33:14;;;;;;;11.70;6.32;;;14.40;99.90;;;;;;5000445;28;20082;-73
2023/08/11 05:35:40;;;;;;;11.10;6.28;;;14.50;99.90;;;;;;4984047;28;21260;-72
2023/08/11 05:38:05;;;;;;;7.35;5.40;;;14.60;99.90;;;;;;4984921;28;20038;-73
2023/08/11 05:40:31;;;;;;;8.05;5.88;;;14.60;99.90;;;;;;4965246;28;20042;-72
2023/08/11 05:42:57;;;;;;;9.73;5.82;;;14.70;99.90;;;;;;4961039;28;20090;-73
2023/08/11 05:45:23;;;;;;;8.95;5.72;;;14.80;99.90;;;;;;4978976;28;20125;-72
2023/08/11 05:47:49;;;;;;;7.25;5.55;;;14.90;99.90;;;;;;4976836;28;20096;-72
2023/08/11 05:50:14;;;;;;;8.10;5.43;;;15.00;99.90;;;;;;4965627;28;20711;-72
2023/08/11 05:52:40;;;;;;;9.77;5.25;;;15.10;99.90;;;;;;4979121;28;20385;-71
2023/08/11 05:55:06;;;;;;;10.57;5.25;;;15.20;99.90;;;;;;4980396;28;20050;-71
2023/08/11 05:57:32;;;;;;;7.78;5.30;;;15.20;99.90;;;;;;4979460;28;20042;-71
2023/08/11 05:59:58;;;;;;;8.13;4.90;;;15.30;99.90;;;;;;4983307;28;20042;-70
2023/08/11 06:02:23;;;;;;;6.38;5.03;;;15.40;99.90;;;;;;4967457;28;20107;-71
2023/08/11 06:04:51;;;;;;;7.20;4.72;;;15.50;99.90;;;;;;5000870;28;20124;-72
2023/08/11 06:07:17;;;;;;;9.52;4.68;;;15.70;99.90;;;;;;4983491;28;20137;-71
2023/08/11 06:09:43;;;;;;;8.68;4.90;;;15.90;99.90;;;;;;4984354;28;20116;-71
2023/08/11 06:12:09;;;;;;;8.70;4.65;;;16.20;99.90;;;;;;4984795;28;20062;-72
2023/08/11 06:14:34;;;;;;;8.07;4.50;;;16.40;99.90;;;;;;4983403;28;20035;-71
2023/08/11 06:17:00;;;;;;;5.80;4.45;;;16.60;99.90;;;;;;4981110;28;20026;-72
2023/08/11 06:19:25;;;;;;;7.25;4.18;;;16.90;99.90;;;;;;5000192;28;20389;-72
2023/08/11 06:21:52;;;;;;;6.85;4.45;;;17.10;99.90;;;;;;4981155;28;20046;-72
2023/08/11 06:24:18;;;;;;;5.78;3.40;;;17.30;99.90;;;;;;4995845;28;20061;-72
2023/08/11 06:26:43;;;;;;;4.65;3.30;;;17.60;99.90;;;;;;4983956;28;20042;-72
2023/08/11 06:29:09;;;;;;;4.88;3.65;;;17.80;99.90;;;;;;4981093;28;20588;-72
2023/08/11 06:31:34;;;;;;;4.55;3.30;;;18.00;99.90;;;;;;4976061;28;20026;-72
2023/08/11 06:34:01;;;;;;;4.07;3.33;;;18.20;99.90;;;;;;4999175;28;20049;-72
2023/08/11 06:36:27;;;;;;;4.80;2.75;;;18.40;99.90;;;;;;4972349;28;21840;-72
2023/08/11 06:38:52;;;;;;;4.40;2.97;;;18.60;95.30;;;;;;4965985;28;20038;-72
2023/08/11 06:41:18;;;;;;;2.92;2.60;;;18.80;41.00;;;;;;4981772;28;20127;-71
2023/08/11 06:43:46;;;;;;;5.55;2.65;;;18.80;1.00;;;;;;4977967;28;20039;-72
2023/08/11 06:46:12;;;;;;;4.15;2.70;;;18.90;1.00;;;;;;4996037;28;20127;-72
2023/08/11 06:48:38;;;;;;;4.50;2.17;;;18.90;1.00;;;;;;4978445;28;20074;-72
2023/08/11 06:51:03;;;;;;;3.40;2.60;;;18.90;1.00;;;;;;4990661;28;20471;-76
2023/08/11 06:53:29;;;;;;;5.13;2.85;;;18.90;1.00;;;;;;4967699;28;20038;-74
2023/08/11 06:55:55;;;;;;;4.10;2.65;;;18.90;99.90;;;;;;4996033;28;20042;-74
2023/08/11 06:58:20;;;;;;;4.55;2.45;;;18.90;99.90;;;;;;4959111;28;20039;-74
2023/08/11 07:00:46;;;;;;;2.90;2.60;;;18.90;99.90;;;;;;4977871;28;20837;-73
2023/08/11 07:03:11;;;;;;;5.25;2.50;;;18.90;99.90;;;;;;4980376;28;20421;-74
2023/08/11 07:05:37;;;;;;;7.07;2.53;;;18.90;99.90;;;;;;4995827;28;20064;-74
2023/08/11 07:08:03;;;;;;;3.70;2.80;;;18.90;99.90;;;;;;4981233;28;20101;-73
2023/08/11 07:10:29;;;;;;;3.45;2.25;;;19.00;99.90;;;;;;4984047;28;20517;-74
2023/08/11 07:12:54;;;;;;;6.13;3.00;;;19.10;99.90;;;;;;4982215;28;20042;-73
2023/08/11 07:15:20;;;;;;;5.55;2.90;;;19.20;99.90;;;;;;4997514;28;20043;-74
2023/08/11 07:17:46;;;;;;;3.38;2.72;;;19.30;99.90;;;;;;4983179;28;20042;-76
2023/08/11 07:20:12;;;;;;;4.38;2.47;;;19.40;99.90;;;;;;4964704;28;20431;-74
2023/08/11 07:22:39;;;;;;;3.33;2.80;;;19.40;99.90;;;;;;4982986;28;20050;-74
2023/08/11 07:25:05;;;;;;;3.22;2.30;;;19.50;99.90;;;;;;4982133;28;20054;-73
2023/08/11 07:27:30;;;;;;;4.75;3.00;;;19.60;99.90;;;;;;4982413;28;20065;-74
2023/08/11 07:29:56;;;;;;;3.85;2.42;;;19.70;99.90;;;;;;4987552;28;20077;-74
2023/08/11 07:32:22;;;;;;;3.80;2.33;;;19.90;99.90;;;;;;4984368;28;20043;-74
2023/08/11 07:34:47;;;;;;;3.05;2.03;;;20.30;99.90;;;;;;4986081;28;20050;-73
2023/08/11 07:37:13;;;;;;;2.60;2.22;;;20.50;99.90;;;;;;4980959;28;21731;-73
2023/08/11 07:39:38;;;;;;;3.58;2.47;;;20.70;83.20;;;;;;5001027;28;20038;-74
2023/08/11 07:42:05;;;;;;;2.97;2.20;;;20.90;1.00;;;;;;4985554;28;20069;-73
2023/08/11 07:44:32;;;;;;;2.80;1.80;;;20.90;99.90;;;;;;4983588;28;20042;-73
2023/08/11 07:46:58;;;;;;;3.15;2.10;;;21.00;99.90;;;;;;4985580;28;20134;-72
2023/08/11 07:49:24;;;;;;;4.63;2.72;;;21.00;99.90;;;;;;4983649;28;20043;-72
2023/08/11 07:51:50;;;;;;;2.55;1.92;;;21.00;99.90;;;;;;4992671;28;20489;-72
2023/08/11 07:54:17;;;;;;;2.95;2.13;;;21.10;99.90;;;;;;4985480;28;20220;-72
2023/08/11 07:56:43;;;;;;;3.30;2.42;;;21.10;99.90;;;;;;4986115;28;20591;-73
2023/08/11 07:59:09;;;;;;;2.35;2.05;;;21.20;99.90;;;;;;4985394;28;20503;-73
2023/08/11 08:01:38;;;;;;;2.58;2.15;;;21.30;99.90;;;;;;4999956;28;20061;-73
2023/08/11 08:04:04;;;;;;;3.40;2.40;;;21.30;99.90;;;;;;4968499;28;20038;-73
2023/08/11 08:06:31;;;;;;;4.55;2.20;;;21.30;99.90;;;;;;4983081;28;20050;-73
2023/08/11 08:08:57;;;;;;;3.28;2.05;;;21.30;99.90;;;;;;4986552;28;20116;-73
2023/08/11 08:11:23;;;;;;;4.22;2.03;;;21.30;99.90;;;;;;5001152;28;20050;-73
2023/08/11 08:13:49;;;;;;;3.35;2.47;;;21.40;99.90;;;;;;4985074;28;20121;-73
2023/08/11 08:16:14;;;;;;;4.82;2.53;;;21.30;99.90;;;;;;4995919;28;21405;-73
2023/08/11 08:18:40;;;;;;;3.15;2.33;;;21.30;99.90;;;;;;4979694;28;20480;-73
2023/08/11 08:21:05;;;;;;;4.20;2.45;;;21.40;99.90;;;;;;4969803;28;20481;-72
2023/08/11 08:23:31;;;;;;;3.25;2.15;;;21.40;99.90;;;;;;4982735;28;20042;-72
2023/08/11 08:25:57;;;;;;;3.13;2.60;;;21.40;99.90;;;;;;4984395;28;20506;-73
2023/08/11 08:28:23;;;;;;;4.53;2.45;;;21.50;99.90;;;;;;4964055;28;20050;-73
2023/08/11 08:30:48;;;;;;;4.25;2.17;;;21.50;99.90;;;;;;4969687;28;20077;-72
2023/08/11 08:33:14;;;;;;;4.32;2.90;;;21.70;99.90;;;;;;4984449;28;20046;-73
2023/08/11 08:35:40;;;;;;;5.70;2.58;;;21.80;99.90;;;;;;4998836;28;20034;-73
2023/08/11 08:38:05;;;;;;;4.43;2.30;;;21.90;99.90;;;;;;4994882;28;20041;-73
2023/08/11 08:40:34;;;;;;;3.38;2.42;;;22.10;99.90;;;;;;4985942;28;20157;-73
2023/08/11 08:43:00;;;;;;;2.58;2.10;;;22.20;92.60;;;;;;4977480;28;20043;-74
2023/08/11 08:45:25;;;;;;;2.47;1.90;;;22.40;90.30;;;;;;4986207;28;20045;-73
2023/08/11 08:47:54;;;;;;;4.10;2.20;;;22.50;64.20;;;;;;4998071;28;20043;-74
2023/08/11 08:50:22;;;;;;;3.85;1.98;;;22.70;49.30;;;;;;4985830;28;20051;-74
2023/08/11 08:52:50;;;;;;;3.35;1.90;;;22.80;40.70;;;;;;4985375;28;20042;-74
2023/08/11 08:55:17;;;;;;;2.72;2.03;;;23.10;8.20;;;;;;4985370;28;20042;-75
2023/08/11 08:57:43;;;;;;;3.75;2.10;;;24.00;1.00;;;;;;5001769;28;20065;-72
2023/08/11 09:00:09;;;;;;;3.63;2.05;;;25.20;1.00;;;;;;5000456;28;20042;-72
2023/08/11 09:02:36;;;;;;;5.30;1.90;;;26.10;1.00;;;;;;4984971;28;20112;-72
2023/08/11 09:05:02;;;;;;;3.38;1.70;;;26.90;1.00;;;;;;4969469;28;20053;-73
2023/08/11 09:07:27;;;;;;;5.07;1.70;;;27.60;1.00;;;;;;4984534;28;20042;-72
2023/08/11 09:09:53;;;;;;;3.10;1.98;;;28.20;1.00;;;;;;4979202;28;20046;-72
2023/08/11 09:12:19;;;;;;;4.57;1.60;;;28.70;1.00;;;;;;4978970;28;20034;-72
2023/08/11 09:14:44;;;;;;;3.30;1.70;;;29.10;1.00;;;;;;4985457;28;20035;-72
2023/08/11 09:17:11;;;;;;;3.05;1.65;;;29.60;1.00;;;;;;4993342;28;20861;-75
2023/08/11 09:19:37;;;;;;;2.83;2.22;;;30.00;1.00;;;;;;5001118;28;20038;-74
2023/08/11 09:22:09;;;;;;;2.35;1.50;;;30.30;1.00;;;;;;4979769;28;20108;-72
2023/08/11 09:24:35;;;;;;;2.65;1.58;;;30.60;1.00;;;;;;4975199;28;20501;-73
2023/08/11 09:27:01;;;;;;;3.13;1.73;;;30.90;1.00;;;;;;4988172;28;20084;-73
2023/08/11 09:29:28;;;;;;;4.03;1.67;;;31.30;1.00;;;;;;4984133;28;20050;-73
2023/08/11 09:31:56;;;;;;;2.88;1.50;;;31.80;1.00;;;;;;4984785;28;20058;-73
2023/08/11 09:34:22;;;;;;;3.40;1.92;;;32.10;1.00;;;;;;4977621;28;20045;-74
2023/08/11 09:36:49;;;;;;;2.58;1.63;;;32.40;1.00;;;;;;4975274;28;20471;-73
2023/08/11 09:39:15;;;;;;;2.88;1.67;;;32.50;1.00;;;;;;5001205;28;20073;-73
2023/08/11 09:41:47;;;;;;;2.70;1.50;;;32.80;1.00;;;;;;4981106;28;20109;-73
2023/08/11 09:44:16;;;;;;;3.15;1.60;;;33.10;1.00;;;;;;5001499;28;20126;-74
2023/08/11 09:46:42;;;;;;;3.22;1.52;;;33.10;1.00;;;;;;4964811;28;20069;-74
2023/08/11 09:49:08;;;;;;;2.85;1.77;;;33.30;1.00;;;;;;4984908;28;20046;-74
2023/08/11 09:51:35;;;;;;;2.00;1.40;;;33.40;1.00;;;;;;4983238;28;20042;-73
2023/08/11 09:54:04;;;;;;;3.33;1.85;;;33.40;1.00;;;;;;4984242;28;20080;-73
2023/08/11 09:56:34;;;;;;;4.05;2.05;;;33.70;1.00;;;;;;5000428;28;20074;-73
2023/08/11 09:59:03;;;;;;;2.58;1.73;;;34.10;1.00;;;;;;5000788;28;20038;-73
2023/08/11 10:01:30;;;;;;;3.33;1.75;;;34.40;1.00;;;;;;4984537;28;20038;-73
2023/08/11 10:03:59;;;;;;;2.03;1.58;;;34.60;1.00;;;;;;5000936;28;20053;-73
2023/08/11 10:06:29;;;;;;;2.05;1.25;;;34.90;1.00;;;;;;4984157;28;20043;-73
2023/08/11 10:09:00;;;;;;;4.85;1.77;;;35.10;1.00;;;;;;4998341;28;20046;-73
2023/08/11 10:11:28;;;;;;;3.20;1.60;;;35.20;1.00;;;;;;4982225;28;20085;-73
2023/08/11 10:13:56;;;;;;;2.20;1.48;;;35.30;1.00;;;;;;5000467;28;20038;-73
2023/08/11 10:16:23;;;;;;;2.45;1.40;;;35.50;1.00;;;;;;4982411;28;20042;-73
2023/08/11 10:18:50;;;;;;;3.03;1.77;;;35.70;1.00;;;;;;4984456;28;20057;-73
2023/08/11 10:21:16;;;;;;;1.67;1.20;;;36.00;1.00;;;;;;4983303;28;20038;-73
2023/08/11 10:23:43;;;;;;;2.35;1.60;;;36.40;1.00;;;;;;5000719;28;20707;-73
2023/08/11 10:26:09;;;;;;;2.17;1.70;;;36.50;1.00;;;;;;4983738;28;20032;-74
2023/08/11 10:28:35;;;;;;;1.80;1.38;;;36.70;1.00;;;;;;4983686;28;20050;-73
2023/08/11 10:31:04;;;;;;;1.55;1.00;;;36.90;1.00;;;;;;4983617;28;20039;-73
2023/08/11 10:33:31;;;;;;;2.47;1.30;;;37.00;1.00;;;;;;4967900;28;20036;-73
2023/08/11 10:35:59;;;;;;;1.65;1.35;;;37.20;1.00;;;;;;4999969;28;20108;-73
2023/08/11 10:38:27;;;;;;;3.50;1.83;;;37.50;1.00;;;;;;5000035;28;20038;-73
2023/08/11 10:41:08;;;;;;;2.47;1.60;;;37.60;1.00;;;;;;4999848;28;20116;-73
2023/08/11 10:43:37;;;;;;;2.63;1.40;;;37.40;1.00;;;;;;4998989;28;20061;-73
2023/08/11 10:46:26;;;;;;;3.03;1.40;;;37.70;1.00;;;;;;4977405;28;20546;-74
2023/08/11 10:48:58;;;;;;;2.22;1.52;;;37.70;1.00;;;;;;4992576;28;20109;-73
2023/08/11 10:51:29;;;;;;;3.45;1.77;;;37.20;1.00;;;;;;4966367;28;20042;-73
2023/08/11 10:54:09;;;;;;;3.03;1.50;;;36.40;1.00;;;;;;4984133;28;20092;-73
2023/08/11 10:56:39;;;;;;;3.58;1.35;;;36.20;1.00;;;;;;4978572;28;20117;-73
2023/08/11 10:59:11;;;;;;;2.35;1.40;;;36.10;1.00;;;;;;4978305;28;20050;-73
2023/08/11 11:01:40;;;;;;;3.70;1.70;;;36.10;1.00;;;;;;4985015;28;20052;-72
2023/08/11 11:04:07;;;;;;;1.90;1.23;;;36.40;1.00;;;;;;4987263;28;20097;-73
2023/08/11 11:06:34;;;;;;;3.55;1.60;;;36.60;1.00;;;;;;4961841;28;20047;-73
2023/08/11 11:09:01;;;;;;;1.83;1.33;;;36.80;1.00;;;;;;4987109;28;20038;-73
2023/08/11 11:11:27;;;;;;;1.63;1.27;;;37.20;1.00;;;;;;4971803;28;20056;-72
2023/08/11 11:13:52;;;;;;;2.25;1.15;;;37.70;1.00;;;;;;4986450;28;20038;-74
2023/08/11 11:16:20;;;;;;;2.08;1.42;;;38.10;1.00;;;;;;5003961;28;20049;-74
2023/08/11 11:18:49;;;;;;;2.17;1.42;;;38.30;1.00;;;;;;4987576;28;20038;-73
2023/08/11 11:21:17;;;;;;;3.25;1.13;;;38.30;1.00;;;;;;4986439;28;20065;-73
2023/08/11 11:23:50;;;;;;;3.03;1.40;;;38.60;1.00;;;;;;5004051;28;20045;-73
2023/08/11 11:26:25;;;;;;;1.88;1.10;;;38.20;1.00;;;;;;4998873;28;20094;-73
2023/08/11 11:28:52;;;;;;;4.03;1.38;;;37.90;1.00;;;;;;4983329;28;20137;-73
2023/08/11 11:31:19;;;;;;;2.45;1.80;;;38.20;1.00;;;;;;4982736;28;20051;-74
2023/08/11 11:33:46;;;;;;;7.13;1.50;;;38.70;1.00;;;;;;4982657;28;20037;-74
2023/08/11 11:36:12;;;;;;;2.00;1.20;;;39.30;1.00;;;;;;4980016;28;20126;-73
2023/08/11 11:38:39;;;;;;;2.22;1.52;;;39.80;1.00;;;;;;4985588;28;20038;-73
2023/08/11 11:41:12;;;;;;;1.75;1.55;;;39.70;1.00;;;;;;4976134;28;20042;-74
2023/08/11 11:43:39;;;;;;;2.38;1.30;;;39.00;1.00;;;;;;4968799;28;20046;-73
2023/08/11 11:46:15;;;;;;;5.10;1.40;;;38.10;1.00;;;;;;5002906;28;20477;-73
2023/08/11 11:48:45;;;;;;;3.63;1.50;;;37.20;1.00;;;;;;4987537;28;20043;-74
2023/08/11 11:51:17;;;;;;;2.13;1.10;;;36.60;1.00;;;;;;4983200;28;20034;-73
2023/08/11 11:53:43;;;;;;;4.65;1.50;;;36.00;1.00;;;;;;4987862;28;20547;-74
2023/08/11 11:56:13;;;;;;;3.25;1.52;;;35.60;1.00;;;;;;4999919;28;20134;-73
2023/08/11 11:58:39;;;;;;;2.70;1.33;;;36.60;1.00;;;;;;4986864;28;20042;-73
2023/08/11 12:01:12;;;;;;;2.60;1.50;;;37.60;1.00;;;;;;4986306;28;20031;-72
2023/08/11 12:03:38;;;;;;;3.72;1.17;;;37.70;1.00;;;;;;4985095;28;21021;-74
2023/08/11 12:06:05;;;;;;;2.03;1.20;;;38.10;1.00;;;;;;4999311;28;20062;-73
2023/08/11 12:08:33;;;;;;;2.03;1.25;;;38.30;1.00;;;;;;4999199;28;20048;-74
2023/08/11 12:11:00;;;;;;;1.83;1.50;;;38.70;1.00;;;;;;5002128;28;20051;-73
2023/08/11 12:13:26;;;;;;;1.77;1.42;;;39.30;1.00;;;;;;4982718;28;20110;-73
2023/08/11 12:15:52;;;;;;;2.97;1.33;;;39.50;1.00;;;;;;4986933;28;20050;-74
2023/08/11 12:18:19;;;;;;;2.05;1.35;;;39.50;1.00;;;;;;4986547;28;20034;-73
2023/08/11 12:20:44;;;;;;;2.70;1.52;;;39.20;1.00;;;;;;4986934;28;20053;-73
2023/08/11 12:23:10;;;;;;;1.52;1.17;;;39.50;1.00;;;;;;4987548;28;20421;-73
2023/08/11 12:25:36;;;;;;;2.17;1.33;;;40.10;1.00;;;;;;4970571;28;20062;-74
2023/08/11 12:28:02;;;;;;;1.98;1.13;;;40.80;1.00;;;;;;4983821;28;20053;-74
2023/08/11 12:30:28;;;;;;;3.45;1.10;;;41.10;1.00;;;;;;4985609;28;20042;-73
2023/08/11 12:32:54;;;;;;;2.00;1.13;;;41.30;1.00;;;;;;4984008;28;20531;-74
2023/08/11 12:35:20;;;;;;;3.55;1.50;;;41.00;1.00;;;;;;4983141;28;20039;-72
2023/08/11 12:37:46;;;;;;;2.55;1.60;;;40.30;1.00;;;;;;4984002;28;20044;-74
2023/08/11 12:40:12;;;;;;;2.28;1.40;;;39.80;1.00;;;;;;5002234;28;20058;-73
2023/08/11 12:42:38;;;;;;;2.35;1.40;;;38.90;1.00;;;;;;5003692;28;20073;-73
2023/08/11 12:45:07;;;;;;;2.28;1.35;;;38.20;1.00;;;;;;5001989;28;20042;-74